Time;durP1;ratioP1;P1;durP2;ratioP2;P2;SDS_P1;SDS_P2;PMS_P1;PMS_P2;Temp;Humidity;BMP_temperature;BMP_pressure;BME280_temperature;BME280_humidity;BME280_pressure;Samples;Min_cycle;Max_cycle;Signal;HPM_P1;HPM_P2
2023/08/25 00:00:22;;;;;;;7.53;6.00;;;;;;;19.48;100.00;100912.03;5070367;28;20029;-38
2023/08/25 00:02:47;;;;;;;7.03;5.97;;;;;;;19.51;100.00;100916.09;5069481;28;20024;-38
2023/08/25 00:05:13;;;;;;;8.02;5.95;;;;;;;19.49;100.00;100923.81;5069750;28;20024;-38
2023/08/25 00:07:38;;;;;;;11.02;6.72;;;;;;;19.45;100.00;100917.25;5070219;28;20060;-38
2023/08/25 00:10:05;;;;;;;7.20;6.22;;;;;;;19.44;100.00;100921.13;5060937;28;20028;-38
2023/08/25 00:12:31;;;;;;;7.03;6.30;;;;;;;19.43;100.00;100922.22;5056961;28;20349;-38
2023/08/25 00:14:56;;;;;;;7.30;6.55;;;;;;;19.44;100.00;100927.41;5057177;28;20028;-38
2023/08/25 00:17:21;;;;;;;7.20;6.22;;;;;;;19.38;100.00;100927.75;5056301;28;20096;-38
2023/08/25 00:19:47;;;;;;;7.95;6.43;;;;;;;19.37;100.00;100934.34;5056831;28;20048;-38
2023/08/25 00:22:13;;;;;;;7.07;6.32;;;;;;;19.38;100.00;100939.56;5056717;28;20033;-38
2023/08/25 00:24:38;;;;;;;7.78;6.25;;;;;;;19.37;100.00;100923.38;5055873;28;20021;-38
2023/08/25 00:27:04;;;;;;;11.93;7.90;;;;;;;19.40;100.00;100922.78;5056156;28;20029;-38
2023/08/25 00:29:29;;;;;;;7.53;6.72;;;;;;;19.35;100.00;100922.84;5055776;28;20052;-38
2023/08/25 00:31:54;;;;;;;7.68;6.85;;;;;;;19.31;100.00;100922.59;5056567;28;20021;-38
2023/08/25 00:34:20;;;;;;;9.32;6.60;;;;;;;19.21;100.00;100915.28;5055936;28;20029;-38
2023/08/25 00:36:45;;;;;;;7.93;6.55;;;;;;;19.33;100.00;100930.56;5056656;28;20029;-38
2023/08/25 00:39:11;;;;;;;7.88;7.18;;;;;;;19.21;100.00;100917.19;5055332;28;20040;-38
2023/08/25 00:41:36;;;;;;;7.88;7.18;;;;;;;19.23;100.00;100936.94;5055692;28;20021;-38
2023/08/25 00:44:02;;;;;;;7.78;6.97;;;;;;;19.20;100.00;100934.75;5055696;28;20025;-38
2023/08/25 00:46:29;;;;;;;7.65;6.85;;;;;;;19.15;100.00;100937.53;5055745;28;20503;-38
2023/08/25 00:48:55;;;;;;;7.30;6.60;;;;;;;19.11;100.00;100929.06;5055647;28;20029;-38
2023/08/25 00:51:21;;;;;;;9.25;7.78;;;;;;;19.11;100.00;100928.25;5056524;28;20358;-38
2023/08/25 00:53:47;;;;;;;9.88;7.88;;;;;;;19.10;100.00;100921.94;5055810;28;20024;-38
2023/08/25 00:56:15;;;;;;;8.80;8.00;;;;;;;19.06;100.00;100928.28;5055843;28;20048;-38
2023/08/25 00:58:41;;;;;;;7.28;6.60;;;;;;;19.05;100.00;100911.03;5055742;28;20094;-38
2023/08/25 01:01:06;;;;;;;8.60;6.95;;;;;;;19.02;100.00;100914.34;5056027;28;20404;-38
2023/08/25 01:03:33;;;;;;;8.45;7.75;;;;;;;18.97;100.00;100925.34;5055370;28;20025;-38
2023/08/25 01:05:58;;;;;;;8.15;7.45;;;;;;;18.94;100.00;100920.44;5055479;28;20029;-38
2023/08/25 01:08:24;;;;;;;9.07;8.18;;;;;;;18.89;100.00;100913.06;5055298;28;20039;-38
2023/08/25 01:11:20;;;;;;;8.30;7.55;;;;;;;18.90;100.00;100916.63;5055293;28;20103;-38
2023/08/25 01:14:22;;;;;;;6.63;6.03;;;;;;;18.95;100.00;100924.81;5055290;28;20028;-38
2023/08/25 01:17:14;;;;;;;6.53;6.03;;;;;;;18.92;100.00;100925.38;5055438;28;20021;-38
2023/08/25 01:20:01;;;;;;;7.00;6.40;;;;;;;18.84;100.00;100918.59;5046699;28;20037;-38
2023/08/25 01:22:43;;;;;;;8.65;6.88;;;;;;;18.81;100.00;100915.59;5054587;28;20024;-38
2023/08/25 01:25:35;;;;;;;7.47;6.80;;;;;;;18.87;100.00;100918.00;5054710;28;20100;-38
2023/08/25 01:28:03;;;;;;;7.00;6.30;;;;;;;18.76;100.00;100900.81;5053552;28;20397;-38
2023/08/25 01:30:32;;;;;;;7.40;6.80;;;;;;;18.75;100.00;100899.19;5054872;28;20025;-38
2023/08/25 01:32:58;;;;;;;6.78;6.07;;;;;;;18.76;100.00;100894.53;5054884;28;20025;-38
2023/08/25 01:35:42;;;;;;;;;;;;;;;18.94;100.00;100912.22;5055525;28;20491;-38
2023/08/25 01:38:13;;;;;;;6.95;6.25;;;;;;;18.83;100.00;100911.44;5055273;28;19963;-38
2023/08/25 01:40:44;;;;;;;6.88;6.28;;;;;;;18.81;100.00;100910.94;5055031;28;20086;-38
2023/08/25 01:43:13;;;;;;;9.25;6.57;;;;;;;18.81;100.00;100907.38;5054951;28;20048;-38
2023/08/25 01:45:40;;;;;;;7.30;6.60;;;;;;;18.81;100.00;100899.97;5055393;28;20100;-38
2023/08/25 01:48:06;;;;;;;7.45;6.85;;;;;;;18.87;100.00;100907.03;5054574;28;20024;-38
2023/08/25 01:50:35;;;;;;;7.80;7.03;;;;;;;18.90;100.00;100900.19;5054522;28;20033;-38
2023/08/25 01:53:02;;;;;;;8.38;7.57;;;;;;;18.87;100.00;100903.50;5054488;28;20055;-38
2023/08/25 01:55:28;;;;;;;7.65;6.93;;;;;;;18.95;100.00;100902.88;5054428;28;20413;-38
2023/08/25 01:57:53;;;;;;;;;;;;;;;19.07;100.00;100906.06;5055408;28;20139;-38
2023/08/25 02:00:19;;;;;;;7.10;6.50;;;;;;;19.02;100.00;100897.88;5054339;28;19908;-38
2023/08/25 02:02:45;;;;;;;8.02;7.15;;;;;;;18.98;100.00;100894.06;5054848;28;20274;-38
2023/08/25 02:05:10;;;;;;;;;;;;;;;19.12;100.00;100886.84;5054664;28;20438;-38
2023/08/25 02:07:35;;;;;;;8.53;7.43;;;;;;;19.03;100.00;100883.06;5054511;28;19998;-38
2023/08/25 02:10:00;;;;;;;;;;;;;;;19.15;100.00;100882.72;5054645;28;20267;-38
2023/08/25 02:12:26;;;;;;;7.30;6.53;;;;;;;19.03;100.00;100866.63;5054183;28;20299;-38
2023/08/25 02:14:51;;;;;;;;;;;;;;;19.16;100.00;100871.47;5054787;28;20723;-38
2023/08/25 02:17:16;;;;;;;9.37;8.00;;;;;;;19.00;100.00;100872.72;5053989;28;20296;-38
2023/08/25 02:19:42;;;;;;;8.85;8.05;;;;;;;18.96;100.00;100875.19;5054013;28;20316;-38
2023/08/25 02:22:07;;;;;;;9.20;7.95;;;;;;;19.03;100.00;100863.88;5053770;28;20017;-38
2023/08/25 02:24:32;;;;;;;;;;;;;;;19.12;100.00;100864.91;5054415;28;20025;-38
2023/08/25 02:26:57;;;;;;;8.43;7.63;;;;;;;19.00;100.00;100864.50;5053958;28;19905;-38
2023/08/25 02:29:24;;;;;;;8.48;7.78;;;;;;;19.07;100.00;100867.69;5054354;28;20107;-38
2023/08/25 02:31:49;;;;;;;9.70;8.85;;;;;;;19.02;100.00;100860.34;5054018;28;20028;-38
2023/08/25 02:34:14;;;;;;;;;;;;;;;19.14;100.00;100867.38;5054378;28;20025;-38
2023/08/25 02:36:40;;;;;;;9.90;9.00;;;;;;;19.09;100.00;100854.53;5054078;28;19958;-38
2023/08/25 02:39:05;;;;;;;;;;;;;;;19.19;100.00;100856.38;5053816;28;20283;-38
2023/08/25 02:41:30;;;;;;;10.60;9.60;;;;;;;19.13;100.00;100852.88;5054033;28;19915;-38
2023/08/25 02:43:56;;;;;;;10.68;9.65;;;;;;;19.13;100.00;100846.53;5053594;28;20263;-38
2023/08/25 02:46:21;;;;;;;;;;;;;;;19.22;100.00;100842.88;5054452;28;20017;-38
2023/08/25 02:48:46;;;;;;;9.97;8.87;;;;;;;19.17;100.00;100842.13;5053608;28;19915;-38
2023/08/25 02:51:11;;;;;;;10.32;9.40;;;;;;;19.12;100.00;100843.00;5053295;28;20025;-38
2023/08/25 02:53:37;;;;;;;10.60;9.70;;;;;;;19.11;100.00;100835.88;5053871;28;20021;-38
2023/08/25 02:56:02;;;;;;;;;;;;;;;19.21;100.00;100840.44;5054042;28;20065;-38
2023/08/25 02:58:28;;;;;;;11.43;10.38;;;;;;;19.07;100.00;100834.81;5054067;28;19913;-38
2023/08/25 03:00:53;;;;;;;11.48;10.38;;;;;;;18.99;100.00;100827.22;5053705;28;20028;-38
2023/08/25 03:03:18;;;;;;;11.80;10.70;;;;;;;18.96;100.00;100827.78;5054293;28;20032;-38
2023/08/25 03:05:43;;;;;;;;;;;;;;;19.09;100.00;100831.81;5054148;28;20027;-38
2023/08/25 03:08:12;;;;;;;17.90;10.43;;;;;;;19.03;100.00;100826.38;5053697;28;19908;-38
2023/08/25 03:10:41;;;;;;;9.73;8.73;;;;;;;19.04;100.00;100824.44;5053327;28;20028;-38
2023/08/25 03:13:07;;;;;;;10.20;9.20;;;;;;;19.03;100.00;100817.31;5053407;28;20368;-38
2023/08/25 03:15:32;;;;;;;9.73;8.82;;;;;;;18.98;100.00;100803.66;5053379;28;20128;-38
2023/08/25 03:17:57;;;;;;;10.13;9.07;;;;;;;19.07;100.00;100812.06;5053251;28;20102;-38
2023/08/25 03:20:23;;;;;;;10.05;9.07;;;;;;;19.06;100.00;100816.75;5053281;28;20133;-38
2023/08/25 03:22:48;;;;;;;11.43;10.27;;;;;;;19.07;100.00;100806.59;5053886;28;20029;-38
2023/08/25 03:25:13;;;;;;;9.60;8.70;;;;;;;19.09;100.00;100810.69;5053282;28;20437;-38
2023/08/25 03:27:39;;;;;;;11.43;10.45;;;;;;;19.06;100.00;100802.22;5053812;28;20032;-38
2023/08/25 03:30:06;;;;;;;12.88;11.57;;;;;;;19.03;100.00;100803.59;5053448;28;20049;-38
2023/08/25 03:32:31;;;;;;;13.02;11.77;;;;;;;19.03;100.00;100795.38;5053762;28;20028;-38
2023/08/25 03:34:56;;;;;;;13.80;12.60;;;;;;;18.96;100.00;100786.69;5053719;28;20433;-38
2023/08/25 03:37:22;;;;;;;15.18;12.95;;;;;;;18.94;100.00;100786.19;5053373;28;20437;-38
2023/08/25 03:39:47;;;;;;;13.75;12.50;;;;;;;18.92;100.00;100780.16;5053154;28;20436;-38
2023/08/25 03:42:12;;;;;;;12.50;11.38;;;;;;;19.00;100.00;100790.50;5053714;28;20063;-38
2023/08/25 03:44:38;;;;;;;12.95;11.80;;;;;;;18.97;100.00;100780.91;5054099;28;20031;-38
2023/08/25 03:47:03;;;;;;;12.65;11.55;;;;;;;19.02;100.00;100782.78;5057728;28;20036;-38
2023/08/25 03:49:30;;;;;;;13.20;11.82;;;;;;;18.91;100.00;100760.16;5057135;28;20100;-38
2023/08/25 03:51:58;;;;;;;13.93;12.57;;;;;;;18.97;100.00;100777.34;5057120;28;20361;-38
2023/08/25 03:54:23;;;;;;;12.10;11.10;;;;;;;19.02;100.00;100775.38;5056764;28;20420;-38
2023/08/25 03:56:49;;;;;;;13.25;11.43;;;;;;;19.00;100.00;100771.31;5057581;28;20142;-38
2023/08/25 03:59:14;;;;;;;21.27;11.50;;;;;;;19.03;100.00;100773.47;5056368;28;20076;-38
2023/08/25 04:01:39;;;;;;;11.98;10.98;;;;;;;19.03;100.00;100771.56;5056913;28;20446;-38
2023/08/25 04:04:05;;;;;;;;;;;;;;;19.15;100.00;100776.63;5057001;28;20025;-38
2023/08/25 04:06:30;;;;;;;11.48;10.23;;;;;;;19.12;100.00;100776.41;5056260;28;19909;-38
2023/08/25 04:08:56;;;;;;;13.32;12.13;;;;;;;19.04;100.00;100766.91;5056489;28;20036;-38
2023/08/25 04:11:21;;;;;;;14.30;13.00;;;;;;;19.08;100.00;100776.19;5056755;28;20036;-38
2023/08/25 04:13:47;;;;;;;14.60;13.23;;;;;;;19.02;100.00;100763.59;5056944;28;20024;-38
2023/08/25 04:16:12;;;;;;;14.65;13.25;;;;;;;19.11;100.00;100775.56;5056839;28;20108;-38
2023/08/25 04:18:38;;;;;;;15.82;14.35;;;;;;;19.11;100.00;100769.28;5056796;28;20104;-38
2023/08/25 04:21:03;;;;;;;16.45;14.95;;;;;;;19.05;100.00;100757.56;5055971;28;20029;-38
2023/08/25 04:23:28;;;;;;;16.27;14.77;;;;;;;19.12;100.00;100765.44;5056791;28;20479;-38
2023/08/25 04:25:54;;;;;;;16.15;14.75;;;;;;;19.11;100.00;100752.84;5056489;28;20422;-38
2023/08/25 04:28:19;;;;;;;16.40;14.82;;;;;;;19.04;100.00;100754.00;5055811;28;20029;-38
2023/08/25 04:30:45;;;;;;;17.20;15.65;;;;;;;19.07;100.00;100755.34;5056068;28;20100;-38
2023/08/25 04:33:11;;;;;;;15.73;13.88;;;;;;;19.10;100.00;100771.22;5056652;28;20029;-38
2023/08/25 04:35:37;;;;;;;17.63;16.02;;;;;;;19.10;100.00;100767.66;5055910;28;20028;-38
2023/08/25 04:38:02;;;;;;;18.42;16.73;;;;;;;19.09;100.00;100777.00;5056137;28;20033;-38
2023/08/25 04:40:28;;;;;;;15.73;14.18;;;;;;;19.09;100.00;100774.25;5056159;28;20092;-38
2023/08/25 04:42:53;;;;;;;16.45;15.05;;;;;;;19.11;100.00;100767.34;5056079;28;20025;-38
2023/08/25 04:45:18;;;;;;;16.92;15.40;;;;;;;19.07;100.00;100766.28;5056077;28;20358;-38
2023/08/25 04:47:44;;;;;;;17.58;15.93;;;;;;;19.04;100.00;100770.44;5055810;28;20373;-38
2023/08/25 04:50:09;;;;;;;19.65;16.35;;;;;;;19.05;100.00;100774.00;5055431;28;20021;-38
2023/08/25 04:52:35;;;;;;;15.82;14.13;;;;;;;19.01;100.00;100770.19;5056252;28;20349;-38
2023/08/25 04:55:03;;;;;;;17.67;16.08;;;;;;;19.06;100.00;100783.03;5055157;28;20104;-38
2023/08/25 04:57:28;;;;;;;18.63;16.83;;;;;;;19.04;100.00;100766.91;5055816;28;20025;-38
2023/08/25 04:59:54;;;;;;;16.25;14.68;;;;;;;19.06;100.00;100761.13;5056365;28;20031;-38
2023/08/25 05:02:20;;;;;;;19.33;17.40;;;;;;;19.08;100.00;100767.13;5055487;28;20033;-38
2023/08/25 05:04:45;;;;;;;19.48;17.58;;;;;;;19.10;100.00;100760.25;5055406;28;20025;-38
2023/08/25 05:07:10;;;;;;;19.55;17.65;;;;;;;19.10;100.00;100759.44;5055947;28;20020;-38
2023/08/25 05:09:36;;;;;;;19.25;17.55;;;;;;;19.08;100.00;100745.19;5055372;28;20461;-38
2023/08/25 05:12:01;;;;;;;21.50;19.40;;;;;;;19.08;100.00;100751.50;5055876;28;20025;-38
2023/08/25 05:14:27;;;;;;;24.67;22.00;;;;;;;19.11;100.00;100748.16;5055517;28;20021;-38
2023/08/25 05:16:52;;;;;;;23.88;21.48;;;;;;;19.12;100.00;100749.81;5055355;28;20377;-38
2023/08/25 05:19:17;;;;;;;23.73;21.08;;;;;;;19.10;100.00;100745.72;5054344;28;20096;-38
2023/08/25 05:21:43;;;;;;;25.20;22.27;;;;;;;19.10;100.00;100745.72;5054690;28;20040;-38
2023/08/25 05:24:23;;;;;;;25.50;22.55;;;;;;;19.12;100.00;100743.50;5054869;28;20021;-38
2023/08/25 05:26:51;;;;;;;24.17;21.77;;;;;;;19.10;100.00;100741.06;5054869;28;20017;-38
2023/08/25 05:29:21;;;;;;;26.25;22.55;;;;;;;19.07;100.00;100740.81;5055031;28;20096;-38
2023/08/25 05:31:47;;;;;;;24.52;21.88;;;;;;;19.14;100.00;100752.28;5054215;28;20048;-38
2023/08/25 05:34:13;;;;;;;22.98;20.67;;;;;;;19.13;100.00;100745.13;5055013;28;20032;-38
2023/08/25 05:36:38;;;;;;;25.02;22.52;;;;;;;19.18;100.00;100748.66;5054967;28;20021;-38
2023/08/25 05:39:04;;;;;;;24.05;21.65;;;;;;;19.23;100.00;100751.34;5053961;28;20024;-38
2023/08/25 05:41:30;;;;;;;21.55;19.48;;;;;;;19.26;100.00;100737.03;5055124;28;20029;-38
2023/08/25 05:43:55;;;;;;;21.55;19.35;;;;;;;19.32;100.00;100723.28;5054492;28;20032;-38
2023/08/25 05:46:21;;;;;;;19.55;17.65;;;;;;;19.28;100.00;100726.63;5054495;28;20025;-38
2023/08/25 05:48:46;;;;;;;19.40;17.58;;;;;;;19.40;100.00;100737.16;5054665;28;20125;-38
2023/08/25 05:51:11;;;;;;;18.25;16.55;;;;;;;19.36;100.00;100724.31;5054447;28;20029;-38
2023/08/25 05:53:37;;;;;;;17.08;15.57;;;;;;;19.39;100.00;100741.00;5053797;28;20487;-38
2023/08/25 05:56:02;;;;;;;17.02;15.43;;;;;;;19.40;100.00;100739.91;5053850;28;20062;-38
2023/08/25 05:58:27;;;;;;;17.20;15.70;;;;;;;19.38;100.00;100735.84;5054166;28;20048;-38
2023/08/25 06:00:53;;;;;;;16.02;14.63;;;;;;;19.38;100.00;100730.34;5053676;28;20060;-38
2023/08/25 06:03:18;;;;;;;17.85;16.13;;;;;;;19.34;100.00;100729.28;5054000;28;20025;-38
2023/08/25 06:05:46;;;;;;;16.52;14.93;;;;;;;19.35;100.00;100719.97;5053621;28;20449;-38
2023/08/25 06:08:12;;;;;;;17.13;15.40;;;;;;;19.39;100.00;100726.50;5053036;28;20033;-38
2023/08/25 06:10:37;;;;;;;16.80;15.30;;;;;;;19.28;100.00;100715.66;5054060;28;20025;-38
2023/08/25 06:13:03;;;;;;;18.20;16.50;;;;;;;19.29;100.00;100716.47;5054674;28;20468;-38
2023/08/25 06:15:29;;;;;;;17.63;15.70;;;;;;;19.28;100.00;100715.66;5053777;28;20025;-38
2023/08/25 06:17:54;;;;;;;16.95;15.25;;;;;;;19.28;100.00;100728.53;5053340;28;20064;-38
2023/08/25 06:20:21;;;;;;;16.73;15.10;;;;;;;19.28;100.00;100728.53;5053340;28;20025;-38
2023/08/25 06:22:46;;;;;;;17.45;15.93;;;;;;;19.14;100.00;100717.44;5053727;28;20067;-38
2023/08/25 06:25:12;;;;;;;17.38;15.88;;;;;;;19.18;100.00;100740.44;5054215;28;20017;-38
2023/08/25 06:27:38;;;;;;;17.00;15.45;;;;;;;19.14;100.00;100755.00;5054207;28;20016;-38
2023/08/25 06:30:04;;;;;;;17.27;15.60;;;;;;;19.19;100.00;100755.78;5053901;28;20472;-38
2023/08/25 06:32:29;;;;;;;17.20;15.50;;;;;;;19.16;100.00;100758.28;5053551;28;20028;-38
2023/08/25 06:34:54;;;;;;;19.23;17.27;;;;;;;19.15;100.00;100732.78;5053573;28;20013;-38
2023/08/25 06:37:20;;;;;;;18.25;16.52;;;;;;;19.10;100.00;100724.63;5054322;28;20048;-38
2023/08/25 06:39:47;;;;;;;19.08;16.90;;;;;;;19.10;100.00;100738.31;5053499;28;20100;-38
2023/08/25 06:42:13;;;;;;;18.10;16.38;;;;;;;19.10;100.00;100741.06;5054003;28;20048;-38
2023/08/25 06:44:39;;;;;;;16.63;15.18;;;;;;;19.10;100.00;100741.06;5053363;28;20421;-38
2023/08/25 06:47:04;;;;;;;17.98;16.38;;;;;;;19.10;100.00;100743.81;5054521;28;20388;-38
2023/08/25 06:49:30;;;;;;;18.35;16.60;;;;;;;18.98;100.00;100748.84;5053810;28;20025;-38
2023/08/25 06:51:55;;;;;;;18.48;16.67;;;;;;;19.06;100.00;100797.56;5053869;28;20021;-38
2023/08/25 06:54:21;;;;;;;19.40;17.40;;;;;;;18.95;100.00;100796.84;5053247;28;20108;-38
2023/08/25 06:56:47;;;;;;;28.73;19.23;;;;;;;18.91;100.00;100734.69;5053802;28;20412;-38
2023/08/25 06:59:14;;;;;;;;;;;;;;;18.93;100.00;100705.88;5054371;28;20072;-38
2023/08/25 07:01:39;;;;;;;20.92;18.83;;;;;;;18.66;100.00;100675.47;5054038;28;20404;-38
2023/08/25 07:04:05;;;;;;;22.35;18.75;;;;;;;18.67;100.00;100671.59;5053474;28;20108;-38
2023/08/25 07:06:30;;;;;;;21.17;19.20;;;;;;;18.67;100.00;100672.44;5053516;28;20033;-38
2023/08/25 07:08:55;;;;;;;20.88;18.85;;;;;;;18.64;100.00;100651.13;5053705;28;20056;-38
2023/08/25 07:11:21;;;;;;;20.83;18.80;;;;;;;18.65;100.00;100647.25;5053390;28;20454;-38
2023/08/25 07:13:46;;;;;;;21.02;18.85;;;;;;;18.63;100.00;100668.63;5053357;28;20075;-38
2023/08/25 07:16:11;;;;;;;21.35;19.15;;;;;;;18.59;100.00;100683.19;5053351;28;20029;-38
2023/08/25 07:18:37;;;;;;;22.55;20.35;;;;;;;18.55;100.00;100672.00;5052954;28;20036;-38
2023/08/25 07:21:04;;;;;;;21.25;19.02;;;;;;;18.58;100.00;100676.06;5056733;28;20416;-38
2023/08/25 07:23:29;;;;;;;21.65;19.52;;;;;;;18.56;100.00;100673.63;5058238;28;20056;-38
2023/08/25 07:25:55;;;;;;;;;;;;;;;18.57;100.00;100690.88;5057734;28;20029;-38
2023/08/25 07:28:20;;;;;;;19.83;17.87;;;;;;;18.48;100.00;100723.53;5057041;28;19950;-38
2023/08/25 07:30:45;;;;;;;;;;;;;;;18.53;100.00;100731.69;5057314;28;20278;-37
2023/08/25 07:33:11;;;;;;;19.60;17.70;;;;;;;18.49;100.00;100747.06;5057224;28;19999;-38
2023/08/25 07:35:36;;;;;;;21.50;18.88;;;;;;;18.48;100.00;100787.31;5057076;28;20021;-37
2023/08/25 07:38:02;;;;;;;;;;;;;;;18.46;100.00;100783.25;5057176;28;20059;-37
2023/08/25 07:40:27;;;;;;;20.40;18.20;;;;;;;18.45;100.00;100752.31;5057789;28;19916;-37
2023/08/25 07:42:57;;;;;;;;;;;;;;;18.42;100.00;100724.69;5057420;28;20029;-37
2023/08/25 07:45:24;;;;;;;19.27;17.38;;;;;;;18.41;100.00;100723.06;5057745;28;20253;-37
2023/08/25 07:47:49;;;;;;;18.33;16.58;;;;;;;18.41;100.00;100706.63;5057467;28;20029;-37
2023/08/25 07:50:14;;;;;;;;;;;;;;;18.46;100.00;100737.53;5057208;28;20024;-37
2023/08/25 07:52:40;;;;;;;13.53;12.23;;;;;;;18.52;100.00;100750.06;5057143;28;19916;-37
2023/08/25 07:55:05;;;;;;;;;;;;;;;18.55;100.00;100767.84;5057682;28;20263;-37
2023/08/25 07:57:31;;;;;;;17.25;15.15;;;;;;;18.54;100.00;100760.72;5056470;28;19916;-37
2023/08/25 07:59:56;;;;;;;15.70;14.20;;;;;;;18.49;100.00;100758.03;5057203;28;20095;-37
2023/08/25 08:02:22;;;;;;;;;;;;;;;18.55;100.00;100767.84;5057631;28;20049;-37
2023/08/25 08:04:47;;;;;;;12.68;11.57;;;;;;;18.51;100.00;100766.78;5056548;28;20389;-37
2023/08/25 08:07:12;;;;;;;11.52;10.43;;;;;;;18.53;100.00;100770.84;5056542;28;20025;-37
2023/08/25 08:09:37;;;;;;;;;;;;;;;18.57;100.00;100773.84;5057477;28;20035;-37
2023/08/25 08:12:03;;;;;;;12.13;11.00;;;;;;;18.66;100.00;100772.13;5056458;28;19942;-37
2023/08/25 08:14:28;;;;;;;;;;;;;;;18.70;100.00;100775.16;5057054;28;20278;-37
2023/08/25 08:16:54;;;;;;;11.05;10.05;;;;;;;18.72;100.00;100762.78;5056304;28;20356;-38
2023/08/25 08:19:19;;;;;;;12.32;11.05;;;;;;;18.72;100.00;100746.34;5056223;28;20029;-37
2023/08/25 08:21:44;;;;;;;11.60;10.38;;;;;;;18.83;100.00;100760.78;5056549;28;20021;-37
2023/08/25 08:24:10;;;;;;;;;;;;;;;18.86;100.00;100757.47;5056670;28;20029;-37
2023/08/25 08:26:36;;;;;;;10.32;9.35;;;;;;;18.82;100.00;100750.13;5056767;28;19904;-37
2023/08/25 08:29:02;;;;;;;10.93;9.93;;;;;;;18.73;100.00;100738.94;5055815;28;20461;-37
2023/08/25 08:31:27;;;;;;;;;;;;;;;18.83;100.00;100744.34;5056022;28;20078;-37
2023/08/25 08:33:53;;;;;;;10.40;8.90;;;;;;;18.86;100.00;100753.91;5056073;28;19909;-37
2023/08/25 08:36:19;;;;;;;12.30;10.00;;;;;;;18.89;100.00;100740.47;5056559;28;20099;-37
2023/08/25 08:38:44;;;;;;;10.38;9.38;;;;;;;18.88;100.00;100724.28;5055778;28;20017;-37
2023/08/25 08:41:10;;;;;;;;;;;;;;;18.93;100.00;100735.19;5056363;28;20036;-37
2023/08/25 08:43:41;;;;;;;10.65;9.52;;;;;;;18.91;100.00;100760.16;5055852;28;19905;-37
2023/08/25 08:46:07;;;;;;;10.57;9.52;;;;;;;18.81;100.00;100768.47;5056047;28;20064;-37
2023/08/25 08:48:33;;;;;;;;;;;;;;;18.89;100.00;100767.03;5056482;28;20091;-37
2023/08/25 08:51:00;;;;;;;9.25;8.43;;;;;;;18.84;100.00;100770.66;5055703;28;19931;-37
2023/08/25 08:53:26;;;;;;;11.13;10.02;;;;;;;18.69;100.00;100741.47;5056207;28;20025;-37
2023/08/25 08:55:53;;;;;;;12.27;10.93;;;;;;;18.67;100.00;100729.94;5055547;28;20025;-37
2023/08/25 08:58:20;;;;;;;11.50;10.32;;;;;;;18.72;100.00;100762.78;5055451;28;20487;-37
2023/08/25 09:00:45;;;;;;;12.25;10.50;;;;;;;18.66;100.00;100761.19;5055470;28;20029;-37
2023/08/25 09:03:14;;;;;;;;;;;;;;;18.77;100.00;100764.66;5055650;28;20052;-37
2023/08/25 09:05:42;;;;;;;10.75;9.75;;;;;;;18.76;100.00;100766.59;5055102;28;20003;-37
2023/08/25 09:08:09;;;;;;;11.50;10.50;;;;;;;18.72;100.00;100767.47;5055348;28;20036;-37
2023/08/25 09:10:35;;;;;;;11.15;10.15;;;;;;;18.80;100.00;100764.09;5054882;28;20369;-37
2023/08/25 09:13:00;;;;;;;;;;;;;;;18.85;100.00;100750.38;5055545;28;20028;-37
2023/08/25 09:15:30;;;;;;;10.75;9.80;;;;;;;18.76;100.00;100755.63;5055250;28;19911;-37
2023/08/25 09:18:04;;;;;;;9.63;8.70;;;;;;;18.76;100.00;100755.63;5055140;28;20024;-37
2023/08/25 09:20:30;;;;;;;9.27;8.38;;;;;;;18.66;100.00;100768.59;5055113;28;20082;-37
2023/08/25 09:22:56;;;;;;;10.23;9.00;;;;;;;18.60;100.00;100792.47;5055401;28;20392;-37
2023/08/25 09:25:23;;;;;;;9.05;8.20;;;;;;;18.58;100.00;100805.59;5055578;28;20401;-37
2023/08/25 09:27:55;;;;;;;13.93;10.05;;;;;;;18.57;100.00;100753.88;5054600;28;20341;-38
2023/08/25 09:30:20;;;;;;;11.07;9.98;;;;;;;18.48;100.00;100735.31;5055246;28;20021;-38
2023/08/25 09:32:46;;;;;;;;;;;;;;;18.60;100.00;100756.03;5055935;28;20025;-38
2023/08/25 09:35:14;;;;;;;10.80;9.80;;;;;;;18.63;100.00;100747.22;5054886;28;19957;-38
2023/08/25 09:37:43;;;;;;;11.57;10.38;;;;;;;18.57;100.00;100745.66;5055041;28;20255;-36
2023/08/25 09:40:13;;;;;;;11.85;10.77;;;;;;;18.74;100.00;100741.44;5054720;28;20074;-36
2023/08/25 09:42:39;;;;;;;11.82;10.82;;;;;;;18.73;100.00;100742.50;5054478;28;20056;-37
2023/08/25 09:45:04;;;;;;;;;;;;;;;18.85;100.00;100738.59;5055694;28;20389;-37
2023/08/25 09:47:31;;;;;;;11.55;10.52;;;;;;;18.83;100.00;100736.13;5054363;28;19904;-37
2023/08/25 09:49:57;;;;;;;10.70;9.80;;;;;;;19.04;100.00;100750.44;5054569;28;20048;-37
2023/08/25 09:52:26;;;;;;;;;;;;;;;19.26;100.00;100748.00;5054963;28;20485;-37
2023/08/25 09:54:52;;;;;;;11.32;10.32;;;;;;;19.56;100.00;100754.22;5054386;28;19904;-37
2023/08/25 09:57:18;;;;;;;10.63;9.73;;;;;;;19.68;100.00;100751.94;5054476;28;20042;-37
2023/08/25 09:59:43;;;;;;;9.40;8.60;;;;;;;19.74;100.00;100739.78;5053749;28;20053;-37
2023/08/25 10:02:11;;;;;;;9.27;8.43;;;;;;;19.80;100.00;100746.81;5054364;28;20032;-37
2023/08/25 10:04:39;;;;;;;9.85;9.00;;;;;;;19.93;100.00;100744.47;5055004;28;20032;-37
2023/08/25 10:07:05;;;;;;;7.93;7.32;;;;;;;20.00;100.00;100747.66;5054236;28;20479;-38
2023/08/25 10:09:30;;;;;;;9.00;8.10;;;;;;;20.09;100.00;100747.81;5053233;28;20068;-37
2023/08/25 10:11:58;;;;;;;8.10;7.30;;;;;;;20.19;100.00;100737.47;5054196;28;20021;-37
2023/08/25 10:14:26;;;;;;;7.80;7.20;;;;;;;20.25;100.00;100730.81;5054381;28;20020;-38
2023/08/25 10:16:52;;;;;;;7.95;7.35;;;;;;;20.35;100.00;100738.09;5054402;28;20335;-38
2023/08/25 10:19:23;;;;;;;7.82;7.13;;;;;;;20.33;100.00;100738.38;5054437;28;20434;-37
2023/08/25 10:21:50;;;;;;;9.60;8.80;;;;;;;20.37;100.00;100751.50;5054589;28;20060;-37
2023/08/25 10:24:18;;;;;;;9.23;8.52;;;;;;;20.33;100.00;100763.06;5054221;28;20361;-37
2023/08/25 10:26:45;;;;;;;7.68;7.13;;;;;;;20.26;100.00;100759.91;5054485;28;20020;-37
2023/08/25 10:29:12;;;;;;;7.82;7.20;;;;;;;20.33;100.00;100774.06;5053875;28;20039;-37
2023/08/25 10:32:02;;;;;;;8.60;7.90;;;;;;;20.45;100.00;100757.16;5053587;28;20107;-37
2023/08/25 10:34:33;;;;;;;8.68;7.78;;;;;;;20.67;100.00;100762.03;5050688;28;20033;-37
2023/08/25 10:37:06;;;;;;;8.57;7.88;;;;;;;20.80;100.00;100755.75;5053470;28;20465;-38
2023/08/25 10:39:44;;;;;;;8.50;7.80;;;;;;;20.79;100.00;100756.88;5053920;28;20033;-37
2023/08/25 10:42:10;;;;;;;7.95;7.25;;;;;;;20.81;100.00;100757.38;5053710;28;20182;-37
2023/08/25 10:44:42;;;;;;;7.47;6.88;;;;;;;20.62;100.00;100736.56;5053592;28;20045;-37
2023/08/25 10:47:08;;;;;;;7.25;6.55;;;;;;;20.56;100.00;100741.34;5053624;28;20027;-38
2023/08/25 10:49:38;;;;;;;8.20;7.50;;;;;;;20.61;100.00;100756.91;5054054;28;20111;-37
2023/08/25 10:52:16;;;;;;;8.32;7.50;;;;;;;20.54;100.00;100755.34;5053470;28;20021;-37
2023/08/25 10:54:44;;;;;;;7.95;7.18;;;;;;;20.49;100.00;100769.16;5053262;28;20356;-38
2023/08/25 10:57:39;;;;;;;8.02;7.00;;;;;;;20.53;100.00;100772.13;5053345;28;20025;-37
2023/08/25 11:00:30;;;;;;;8.27;7.47;;;;;;;20.48;100.00;100759.31;5053392;28;20039;-37
2023/08/25 11:02:57;;;;;;;7.70;6.97;;;;;;;20.41;100.00;100744.31;5054191;28;20361;-37
2023/08/25 11:05:28;;;;;;;8.63;7.82;;;;;;;20.49;100.00;100755.44;5053391;28;20025;-37
2023/08/25 11:07:55;;;;;;;7.88;7.28;;;;;;;20.45;100.00;100745.34;5053339;28;20029;-38
2023/08/25 11:10:21;;;;;;;8.95;8.07;;;;;;;20.46;100.00;100755.22;5053382;28;20067;-37
2023/08/25 11:12:51;;;;;;;8.18;7.47;;;;;;;20.48;100.00;100750.25;5053398;28;20104;-37
2023/08/25 11:15:16;;;;;;;9.18;8.48;;;;;;;20.54;100.00;100730.63;5053818;28;20116;-37